createdAt,value
2022-09-13T00:01:04.065Z,96161.84
2022-09-13T00:03:32.270Z,96168.03
2022-09-13T00:06:01.630Z,96172.59
2022-09-13T00:08:29.505Z,96153.75
2022-09-13T00:10:57.186Z,96154.81
2022-09-13T00:13:26.262Z,96151.34
2022-09-13T00:15:53.958Z,96152.94
2022-09-13T00:18:21.671Z,96151.91
2022-09-13T00:20:49.406Z,96161.81
2022-09-13T00:23:17.135Z,96157.81
2022-09-13T00:25:44.807Z,96159.88
2022-09-13T00:28:12.586Z,96163.91
2022-09-13T00:30:41.622Z,96157.72
2022-09-13T00:33:09.379Z,96151.25
2022-09-13T00:35:37.067Z,96152.88
2022-09-13T00:38:04.905Z,96145.09
2022-09-13T00:40:32.585Z,96146.13
2022-09-13T00:43:00.242Z,96141.56
2022-09-13T00:45:28.065Z,96141.59
2022-09-13T00:48:02.150Z,96149.63
2022-09-13T00:50:36.114Z,96152.31
2022-09-13T00:53:09.032Z,96156.28
2022-09-13T00:55:42.488Z,96158.50
2022-09-13T00:58:14.355Z,96150.72
2022-09-13T01:00:42.319Z,96146.69
2022-09-13T01:03:15.022Z,96151.81
2022-09-13T01:05:47.131Z,96156.38
2022-09-13T01:08:22.769Z,96147.44
2022-09-13T01:10:52.910Z,96156.91
2022-09-13T01:13:23.673Z,96150.94
2022-09-13T01:15:51.945Z,96145.06
2022-09-13T01:18:21.501Z,96151.47
2022-09-13T01:21:30.637Z,96148.47
2022-09-13T01:24:29.891Z,96148.13
2022-09-13T01:27:20.639Z,96161.84
2022-09-13T01:30:20.812Z,96161.91
2022-09-13T01:33:07.512Z,96157.63
2022-09-13T01:35:49.569Z,96151.63
2022-09-13T01:38:37.689Z,96153.31
2022-09-13T01:41:20.062Z,96163.53
2022-09-13T01:43:53.791Z,96167.28
2022-09-13T01:46:30.119Z,96163.00
2022-09-13T01:49:04.245Z,96157.53
2022-09-13T01:51:36.155Z,96160.75
2022-09-13T01:54:14.686Z,96159.13
2022-09-13T01:56:47.134Z,96162.63
2022-09-13T01:59:20.556Z,96163.72
2022-09-13T02:01:56.747Z,96160.97
2022-09-13T02:04:28.290Z,96167.75
2022-09-13T02:07:04.151Z,96163.44
2022-09-13T02:09:36.227Z,96171.75
2022-09-13T02:12:08.111Z,96173.84
2022-09-13T02:14:39.196Z,96169.31
2022-09-13T02:17:13.717Z,96171.47
2022-09-13T02:19:48.317Z,96174.72
2022-09-13T02:22:21.020Z,96158.00
2022-09-13T02:24:55.733Z,96171.22
2022-09-13T02:27:27.217Z,96176.00
2022-09-13T02:29:59.695Z,96178.06
2022-09-13T02:32:33.735Z,96178.34
2022-09-13T02:35:06.371Z,96169.75
2022-09-13T02:37:37.683Z,96176.41
2022-09-13T02:40:09.374Z,96173.47
2022-09-13T02:42:44.224Z,96175.16
2022-09-13T02:45:14.450Z,96169.59
2022-09-13T02:47:48.558Z,96163.25
2022-09-13T02:50:33.872Z,96156.47
2022-09-13T02:53:06.858Z,96152.16
2022-09-13T02:55:45.915Z,96152.84
2022-09-13T02:58:24.891Z,96155.16
2022-09-13T03:00:55.143Z,96147.03
2022-09-13T03:03:25.362Z,96156.47
2022-09-13T03:05:54.398Z,96154.31
2022-09-13T03:08:23.297Z,96150.75
2022-09-13T03:11:02.506Z,96147.53
2022-09-13T03:13:41.191Z,96151.66
2022-09-13T03:16:39.642Z,96154.53
2022-09-13T03:19:26.577Z,96141.31
2022-09-13T03:22:08.109Z,96154.97
2022-09-13T03:24:51.026Z,96139.47
2022-09-13T03:27:29.375Z,96140.41
2022-09-13T03:30:03.884Z,96142.47
2022-09-13T03:32:38.870Z,96149.44
2022-09-13T03:35:19.347Z,96097.63
2022-09-13T03:37:56.869Z,96157.16
2022-09-13T03:40:36.490Z,96154.81
2022-09-13T03:43:11.868Z,96156.13
2022-09-13T03:45:43.969Z,96163.94
2022-09-13T03:48:13.001Z,96167.13
2022-09-13T03:50:43.452Z,96160.44
2022-09-13T03:53:13.198Z,96159.97
2022-09-13T03:55:43.056Z,96164.44
2022-09-13T03:58:13.566Z,96155.06
2022-09-13T04:00:41.504Z,96160.41
2022-09-13T04:03:10.424Z,96160.97
2022-09-13T04:05:39.056Z,96153.69
2022-09-13T04:08:09.050Z,96160.00
2022-09-13T04:10:37.790Z,96166.50
2022-09-13T04:13:06.260Z,96157.59
2022-09-13T04:15:34.120Z,96159.00
2022-09-13T04:18:02.050Z,96162.75
2022-09-13T04:20:29.822Z,96165.50
2022-09-13T04:22:58.486Z,96167.59
2022-09-13T04:25:27.717Z,96166.88
2022-09-13T04:27:55.994Z,96166.53
2022-09-13T04:30:24.002Z,96171.41
2022-09-13T04:32:51.668Z,96175.91
2022-09-13T04:35:19.879Z,96182.06
2022-09-13T04:37:47.607Z,96176.16
2022-09-13T04:40:15.524Z,96177.75
2022-09-13T04:42:46.061Z,96164.94
2022-09-13T04:45:14.101Z,96163.34
2022-09-13T04:47:41.878Z,96167.09
2022-09-13T04:50:09.885Z,96165.00
2022-09-13T04:52:37.599Z,96169.31
2022-09-13T04:55:05.996Z,96169.22
2022-09-13T04:57:34.105Z,96172.09
2022-09-13T05:00:03.882Z,96175.06
2022-09-13T05:02:31.635Z,96173.28
2022-09-13T05:04:59.519Z,96180.97
2022-09-13T05:07:27.274Z,96182.31
2022-09-13T05:09:55.028Z,96192.84
2022-09-13T05:12:22.693Z,96194.16
2022-09-13T05:14:50.377Z,96193.09
2022-09-13T05:17:20.579Z,96203.06
2022-09-13T05:19:49.364Z,96204.66
2022-09-13T05:22:17.059Z,96195.34
2022-09-13T05:24:45.119Z,96193.56
2022-09-13T05:27:12.857Z,96185.25
2022-09-13T05:29:40.601Z,96191.22
2022-09-13T05:32:08.324Z,96181.59
2022-09-13T05:34:37.414Z,96189.13
2022-09-13T05:37:05.548Z,96198.31
2022-09-13T05:39:54.026Z,96191.72
2022-09-13T05:42:20.981Z,96190.41
2022-09-13T05:44:48.719Z,96187.53
2022-09-13T05:47:16.892Z,96184.50
2022-09-13T05:50:08.869Z,96181.59
2022-09-13T05:52:33.975Z,96178.72
2022-09-13T05:55:01.725Z,96170.66
2022-09-13T05:57:29.458Z,96161.03
2022-09-13T05:59:57.112Z,96168.88
2022-09-13T06:02:24.984Z,96164.28
2022-09-13T06:04:54.185Z,96175.34
2022-09-13T06:07:21.880Z,96179.94
2022-09-13T06:09:49.609Z,96174.06
2022-09-13T06:12:17.283Z,96170.56
2022-09-13T06:14:44.974Z,96163.50
2022-09-13T06:17:12.678Z,96158.88
2022-09-13T06:19:40.844Z,96154.22
2022-09-13T06:22:09.915Z,96158.72
2022-09-13T06:24:38.328Z,96149.13
2022-09-13T06:27:06.508Z,96147.19
2022-09-13T06:29:34.275Z,96148.56
2022-09-13T06:32:01.994Z,96148.22
2022-09-13T06:34:31.446Z,96148.19
2022-09-13T06:36:59.333Z,96137.91
2022-09-13T06:39:29.089Z,96130.47
2022-09-13T06:41:56.746Z,96132.47
2022-09-13T06:44:24.556Z,96131.25
2022-09-13T06:46:52.415Z,96138.72
2022-09-13T06:49:20.197Z,96130.06
2022-09-13T06:51:48.031Z,96132.03
2022-09-13T06:54:15.781Z,96131.31
2022-09-13T06:56:44.889Z,96129.53
2022-09-13T06:59:12.676Z,96127.81
2022-09-13T07:01:41.623Z,96135.13
2022-09-13T07:04:11.429Z,96128.34
2022-09-13T07:06:40.865Z,96130.25
2022-09-13T07:09:10.604Z,96121.50
2022-09-13T07:11:40.415Z,96114.34
2022-09-13T07:14:09.880Z,96104.34
2022-09-13T07:16:39.096Z,96110.72
2022-09-13T07:19:08.641Z,96112.72
2022-09-13T07:21:36.659Z,96107.53
2022-09-13T07:24:05.476Z,96105.06
2022-09-13T07:26:33.329Z,96108.41
2022-09-13T07:29:02.536Z,96109.66
2022-09-13T07:31:33.116Z,96111.31
2022-09-13T07:34:02.905Z,96109.66
2022-09-13T07:36:32.775Z,96096.97
2022-09-13T07:39:01.847Z,96098.84
2022-09-13T07:41:31.607Z,96102.28
2022-09-13T07:44:00.909Z,96103.19
2022-09-13T07:46:32.763Z,96099.38
2022-09-13T07:49:01.229Z,96106.09
2022-09-13T07:51:30.973Z,96107.72
2022-09-13T07:54:00.319Z,96119.59
2022-09-13T07:56:30.128Z,96120.97
2022-09-13T07:59:00.850Z,96117.69
2022-09-13T08:01:31.833Z,96115.28
2022-09-13T08:04:01.628Z,96118.16
2022-09-13T08:06:31.013Z,96113.59
2022-09-13T08:08:59.364Z,96111.75
2022-09-13T08:11:30.285Z,96122.06
2022-09-13T08:13:58.545Z,96119.44
2022-09-13T08:16:28.031Z,96110.16
2022-09-13T08:18:59.347Z,96107.66
2022-09-13T08:21:27.901Z,96109.22
2022-09-13T08:23:56.840Z,96104.75
2022-09-13T08:26:25.137Z,96104.03
2022-09-13T08:28:57.407Z,96094.69
2022-09-13T08:31:25.394Z,96096.41
2022-09-13T08:33:53.409Z,96101.00
2022-09-13T08:36:23.979Z,96102.47
2022-09-13T08:38:52.880Z,96100.16
2022-09-13T08:41:52.658Z,96105.25
2022-09-13T08:44:27.066Z,96104.94
2022-09-13T08:47:03.551Z,96102.75
2022-09-13T08:49:35.614Z,96101.53
2022-09-13T08:52:25.447Z,96090.53
2022-09-13T08:54:58.117Z,96093.75
2022-09-13T08:57:33.657Z,96094.13
2022-09-13T09:00:07.965Z,96094.16
2022-09-13T09:02:58.534Z,96092.25
2022-09-13T09:05:30.287Z,96089.31
2022-09-13T09:08:02.082Z,96095.59
2022-09-13T09:10:33.834Z,96090.75
2022-09-13T09:13:07.480Z,96085.72
2022-09-13T09:15:40.288Z,96095.78
2022-09-13T09:18:14.462Z,96087.13
2022-09-13T09:21:10.478Z,96078.88
2022-09-13T09:23:47.328Z,96081.41
2022-09-13T09:26:17.722Z,96078.47
2022-09-13T09:28:48.681Z,96080.03
2022-09-13T09:31:23.448Z,96083.22
2022-09-13T09:34:04.951Z,96075.94
2022-09-13T09:36:40.322Z,96076.16
2022-09-13T09:39:13.070Z,96065.50
2022-09-13T09:41:41.110Z,96073.72
2022-09-13T09:44:18.740Z,96076.63
2022-09-13T09:46:51.153Z,96077.66
2022-09-13T09:49:39.791Z,96061.53
2022-09-13T09:52:11.260Z,96073.34
2022-09-13T09:54:41.693Z,96068.28
2022-09-13T09:57:09.943Z,96064.66
2022-09-13T09:59:37.656Z,96052.84
2022-09-13T10:02:17.229Z,96067.03
2022-09-13T10:04:56.689Z,96057.84
2022-09-13T10:07:29.178Z,96059.44
2022-09-13T10:10:06.370Z,96059.66
2022-09-13T10:12:36.691Z,96050.50
2022-09-13T10:15:08.303Z,96041.75
2022-09-13T10:17:36.925Z,96039.41
2022-09-13T10:20:20.422Z,96028.03
2022-09-13T10:23:12.308Z,96039.72
2022-09-13T10:25:47.940Z,96041.88
2022-09-13T10:28:20.275Z,96032.44
2022-09-13T10:30:54.134Z,96033.75
2022-09-13T10:33:31.130Z,96017.59
2022-09-13T10:36:01.796Z,96020.63
2022-09-13T10:38:33.195Z,96011.06
2022-09-13T10:41:05.945Z,96021.13
2022-09-13T10:43:34.674Z,96020.41
2022-09-13T10:46:05.819Z,96013.06
2022-09-13T10:48:46.362Z,96017.69
2022-09-13T10:51:24.092Z,96012.94
2022-09-13T10:53:52.229Z,96019.38
2022-09-13T10:56:24.342Z,96011.69
2022-09-13T10:58:52.156Z,95997.94
2022-09-13T11:01:44.172Z,95991.88
2022-09-13T11:04:43.384Z,95990.34
2022-09-13T11:07:27.512Z,95990.88
2022-09-13T11:10:03.117Z,95986.03
2022-09-13T11:12:41.270Z,95984.03
2022-09-13T11:15:21.599Z,95973.88
2022-09-13T11:18:07.248Z,95982.31
2022-09-13T11:20:46.073Z,95973.34
2022-09-13T11:23:41.542Z,95976.03
2022-09-13T11:26:25.962Z,95969.63
2022-09-13T11:29:03.290Z,95972.22
2022-09-13T11:31:42.921Z,95961.50
2022-09-13T11:34:22.619Z,95951.56
2022-09-13T11:37:04.352Z,95946.50
2022-09-13T11:39:36.392Z,95935.19
2022-09-13T11:42:19.106Z,95930.06
2022-09-13T11:45:01.863Z,95930.09
2022-09-13T11:47:41.475Z,95935.06
2022-09-13T11:50:26.505Z,95934.75
2022-09-13T11:53:06.649Z,95936.22
2022-09-13T11:55:39.528Z,95934.28
2022-09-13T11:58:14.224Z,95934.28
2022-09-13T12:00:46.453Z,95933.72
2022-09-13T12:03:21.807Z,95925.38
2022-09-13T12:05:53.794Z,95926.09
2022-09-13T12:08:25.432Z,95918.94
2022-09-13T12:10:57.178Z,95926.81
2022-09-13T12:13:28.095Z,95908.81
2022-09-13T12:16:02.224Z,95910.34
2022-09-13T12:18:35.505Z,95906.44
2022-09-13T12:21:09.377Z,95907.53
2022-09-13T12:23:40.770Z,95908.69
2022-09-13T12:26:14.386Z,95893.72
2022-09-13T12:28:45.808Z,95895.53
2022-09-13T12:31:19.616Z,95893.22
2022-09-13T12:33:55.897Z,95892.81
2022-09-13T12:36:58.014Z,95891.91
2022-09-13T12:39:42.762Z,95885.84
2022-09-13T12:42:31.092Z,95878.59
2022-09-13T12:45:21.846Z,95880.91
2022-09-13T12:48:11.902Z,95883.72
2022-09-13T12:50:50.682Z,95876.59
2022-09-13T12:53:46.958Z,95876.22
2022-09-13T12:56:31.131Z,95870.97
2022-09-13T12:59:14.586Z,95869.00
2022-09-13T13:01:47.505Z,95868.56
2022-09-13T13:04:21.448Z,95870.78
2022-09-13T13:06:52.005Z,95872.25
2022-09-13T13:09:29.560Z,95866.38
2022-09-13T13:11:59.631Z,95868.53
2022-09-13T13:14:53.162Z,95866.34
2022-09-13T13:17:52.015Z,95868.78
2022-09-13T13:20:45.961Z,95874.25
2022-09-13T13:23:28.782Z,95866.19
2022-09-13T13:26:02.992Z,95869.94
2022-09-13T13:28:51.938Z,95869.50
2022-09-13T13:31:41.253Z,95868.03
2022-09-13T13:34:31.744Z,95869.19
2022-09-13T13:37:05.844Z,95864.47
2022-09-13T13:39:36.900Z,95869.63
2022-09-13T13:42:13.776Z,95863.91
2022-09-13T13:45:17.721Z,95873.16
2022-09-13T13:48:20.920Z,95866.97
2022-09-13T13:51:15.535Z,95859.97
2022-09-13T13:53:48.044Z,95862.97
2022-09-13T13:56:30.703Z,95856.03
2022-09-13T13:59:04.609Z,95851.94
2022-09-13T14:01:36.546Z,95861.41
2022-09-13T14:04:31.375Z,95854.47
2022-09-13T14:07:18.971Z,95855.41
2022-09-13T14:09:55.515Z,95845.25
2022-09-13T14:12:36.071Z,95848.66
2022-09-13T14:15:28.248Z,95818.88
2022-09-13T14:18:40.196Z,95841.63
2022-09-13T14:21:21.499Z,95836.03
2022-09-13T14:23:49.212Z,95834.00
2022-09-13T14:26:18.597Z,95827.19
2022-09-13T14:28:46.412Z,95826.91
2022-09-13T14:31:20.414Z,95818.25
2022-09-13T14:33:49.024Z,95818.53
2022-09-13T14:36:20.545Z,95815.28
2022-09-13T14:38:55.082Z,95817.69
2022-09-13T14:41:33.217Z,95820.03
2022-09-13T14:44:23.776Z,95806.91
2022-09-13T14:47:02.083Z,95808.31
2022-09-13T14:49:33.354Z,95793.44
2022-09-13T14:52:05.338Z,95806.81
2022-09-13T14:54:38.809Z,95803.03
2022-09-13T14:57:10.573Z,95808.47
2022-09-13T14:59:43.326Z,95806.84
2022-09-13T15:02:19.893Z,95812.50
2022-09-13T15:04:51.328Z,95819.66
2022-09-13T15:07:23.582Z,95812.19
2022-09-13T15:09:56.319Z,95801.09
2022-09-13T15:12:28.176Z,95806.28
2022-09-13T15:15:14.503Z,95812.84
2022-09-13T15:17:56.585Z,95808.41
2022-09-13T15:20:26.259Z,95809.66
2022-09-13T15:22:54.381Z,95817.38
2022-09-13T15:25:26.333Z,95816.94
2022-09-13T15:27:57.047Z,95806.47
2022-09-13T15:30:28.387Z,95801.53
2022-09-13T15:33:20.901Z,95809.19
2022-09-13T15:35:49.025Z,95805.00
2022-09-13T15:38:25.893Z,95800.66
2022-09-13T15:41:03.366Z,95792.41
2022-09-13T15:43:32.507Z,95786.97
2022-09-13T15:46:01.621Z,95791.69
2022-09-13T15:48:31.035Z,95792.28
2022-09-13T15:51:13.152Z,95793.63
2022-09-13T15:53:43.194Z,95795.78
2022-09-13T15:56:15.787Z,95799.75
2022-09-13T15:58:44.983Z,95797.53
2022-09-13T16:01:14.481Z,95801.03
2022-09-13T16:03:42.569Z,95801.38
2022-09-13T16:06:11.197Z,95795.69
2022-09-13T16:08:39.941Z,95794.78
2022-09-13T16:11:08.417Z,95789.88
2022-09-13T16:13:37.140Z,95791.16
2022-09-13T16:16:06.526Z,95795.13
2022-09-13T16:18:34.258Z,95792.41
2022-09-13T16:21:02.084Z,95791.19
2022-09-13T16:23:29.814Z,95784.13
2022-09-13T16:25:59.662Z,95785.13
2022-09-13T16:28:27.967Z,95778.72
2022-09-13T16:30:55.840Z,95774.78
2022-09-13T16:33:24.949Z,95758.72
2022-09-13T16:35:52.676Z,95759.56
2022-09-13T16:38:20.400Z,95756.50
2022-09-13T16:40:49.027Z,95763.88
2022-09-13T16:43:16.727Z,95764.75
2022-09-13T16:45:45.357Z,95771.91
2022-09-13T16:48:13.155Z,95765.00
2022-09-13T16:50:42.859Z,95759.31
2022-09-13T16:53:10.652Z,95771.03
2022-09-13T16:55:38.415Z,95755.38
2022-09-13T16:58:06.251Z,95765.03
2022-09-13T17:00:33.972Z,95761.69
2022-09-13T17:03:01.721Z,95768.13
2022-09-13T17:05:29.748Z,95753.53
2022-09-13T17:07:59.020Z,95758.16
2022-09-13T17:10:26.952Z,95757.03
2022-09-13T17:12:54.703Z,95765.06
2022-09-13T17:15:22.425Z,95760.13
2022-09-13T17:17:50.094Z,95756.63
2022-09-13T17:20:17.856Z,95757.72
2022-09-13T17:22:45.573Z,95764.81
2022-09-13T17:25:16.065Z,95764.00
2022-09-13T17:27:43.906Z,95768.47
2022-09-13T17:30:12.909Z,95753.72
2022-09-13T17:32:40.692Z,95759.53
2022-09-13T17:35:09.096Z,95762.56
2022-09-13T17:37:36.856Z,95762.72
2022-09-13T17:40:05.114Z,95759.03
2022-09-13T17:42:34.260Z,95768.00
2022-09-13T17:45:01.973Z,95765.56
2022-09-13T17:47:29.637Z,95767.16
2022-09-13T17:49:59.033Z,95781.72
2022-09-13T17:52:26.727Z,95788.25
2022-09-13T17:54:54.436Z,95789.19
2022-09-13T17:57:22.178Z,95788.72
2022-09-13T17:59:52.223Z,95792.38
2022-09-13T18:02:21.783Z,95788.56
2022-09-13T18:04:51.553Z,95786.63
2022-09-13T18:07:19.480Z,95787.44
2022-09-13T18:09:47.312Z,95783.88
2022-09-13T18:12:14.990Z,95785.00
2022-09-13T18:14:42.697Z,95792.66
2022-09-13T18:17:13.247Z,95791.09
2022-09-13T18:19:46.393Z,95790.16
2022-09-13T18:22:14.758Z,95787.09
2022-09-13T18:24:42.636Z,95790.25
2022-09-13T18:27:10.346Z,95788.97
2022-09-13T18:29:38.059Z,95791.66
2022-09-13T18:32:05.941Z,95790.19
2022-09-13T18:34:34.996Z,95793.53
2022-09-13T18:37:02.711Z,95801.66
2022-09-13T18:39:30.499Z,95798.25
2022-09-13T18:41:58.296Z,95795.28
2022-09-13T18:44:25.994Z,95797.16
2022-09-13T18:46:54.301Z,95786.78
2022-09-13T18:49:22.008Z,95785.47
2022-09-13T18:51:51.139Z,95786.16
2022-09-13T18:54:19.755Z,95797.53
2022-09-13T18:56:48.734Z,95784.53
2022-09-13T18:59:16.411Z,95796.84
2022-09-13T19:01:45.292Z,95792.22
2022-09-13T19:04:15.229Z,95785.44
2022-09-13T19:06:44.345Z,95791.56
2022-09-13T19:09:14.474Z,95789.59
2022-09-13T19:11:48.244Z,95782.03
2022-09-13T19:14:18.300Z,95778.94
2022-09-13T19:16:46.114Z,95781.50
2022-09-13T19:19:14.017Z,95788.88
2022-09-13T19:21:42.228Z,95791.13
2022-09-13T19:24:17.752Z,95786.78
2022-09-13T19:26:50.555Z,95797.16
2022-09-13T19:29:20.796Z,95795.53
2022-09-13T19:31:49.978Z,95796.22
2022-09-13T19:34:18.641Z,95795.56
2022-09-13T19:36:47.280Z,95795.22
2022-09-13T19:39:15.141Z,95793.16
2022-09-13T19:41:43.066Z,95790.06
2022-09-13T19:44:13.776Z,95794.91
2022-09-13T19:46:42.518Z,95811.03
2022-09-13T19:49:13.741Z,95810.78
2022-09-13T19:51:42.863Z,95805.47
2022-09-13T19:54:13.685Z,95804.03
2022-09-13T19:56:43.331Z,95805.28
2022-09-13T19:59:15.106Z,95799.00
2022-09-13T20:01:44.893Z,95806.22
2022-09-13T20:04:14.359Z,95777.53
2022-09-13T20:06:44.152Z,95795.78
2022-09-13T20:09:13.015Z,95796.28
2022-09-13T20:11:44.962Z,95801.41
2022-09-13T20:14:14.471Z,95795.66
2022-09-13T20:16:43.784Z,95787.09
2022-09-13T20:19:36.786Z,95789.59
2022-09-13T20:22:03.234Z,95800.44
2022-09-13T20:24:30.959Z,95803.41
2022-09-13T20:26:58.627Z,95800.00
2022-09-13T20:29:27.674Z,95792.97
2022-09-13T20:31:55.580Z,95804.81
2022-09-13T20:34:23.439Z,95801.63
2022-09-13T20:36:51.161Z,95800.25
2022-09-13T20:39:19.033Z,95794.31
2022-09-13T20:41:49.268Z,95795.56
2022-09-13T20:44:17.003Z,95792.25
2022-09-13T20:46:46.203Z,95791.25
2022-09-13T20:49:13.971Z,95790.34
2022-09-13T20:51:41.753Z,95781.66
2022-09-13T20:54:11.919Z,95809.53
2022-09-13T20:56:40.351Z,95816.97
2022-09-13T20:59:08.182Z,95822.78
2022-09-13T21:01:36.342Z,95818.69
2022-09-13T21:04:06.116Z,95820.38
2022-09-13T21:06:39.593Z,95817.41
2022-09-13T21:09:09.343Z,95815.38
2022-09-13T21:11:38.561Z,95795.47
2022-09-13T21:14:08.730Z,95814.75
2022-09-13T21:16:39.004Z,95809.31
2022-09-13T21:19:09.116Z,95800.50
2022-09-13T21:21:38.363Z,95804.88
2022-09-13T21:24:09.652Z,95802.06
2022-09-13T21:26:39.611Z,95806.59
2022-09-13T21:29:07.407Z,95800.25
2022-09-13T21:31:35.138Z,95802.09
2022-09-13T21:34:05.978Z,95807.94
2022-09-13T21:36:37.196Z,95810.63
2022-09-13T21:39:05.944Z,95793.44
2022-09-13T21:41:33.868Z,95782.03
2022-09-13T21:44:01.914Z,95789.69
2022-09-13T21:46:31.891Z,95787.88
2022-09-13T21:49:02.228Z,95791.69
2022-09-13T21:51:33.038Z,95784.03
2022-09-13T21:54:05.514Z,95790.97
2022-09-13T21:56:35.183Z,95793.66
2022-09-13T21:59:04.953Z,95784.91
2022-09-13T22:01:35.795Z,95781.06
2022-09-13T22:04:03.806Z,95773.22
2022-09-13T22:06:34.471Z,95762.38
2022-09-13T22:09:06.355Z,95762.88
2022-09-13T22:11:38.467Z,95766.84
2022-09-13T22:14:07.313Z,95771.56
2022-09-13T22:16:37.258Z,95782.41
2022-09-13T22:19:09.235Z,95774.47
2022-09-13T22:21:37.937Z,95776.41
2022-09-13T22:24:08.837Z,95770.72
2022-09-13T22:26:39.415Z,95766.06
2022-09-13T22:29:08.219Z,95747.00
2022-09-13T22:31:38.344Z,95755.06
2022-09-13T22:34:06.897Z,95757.31
2022-09-13T22:36:34.721Z,95756.19
2022-09-13T22:39:02.458Z,95755.16
2022-09-13T22:41:33.653Z,95755.44
2022-09-13T22:44:03.122Z,95754.88
2022-09-13T22:46:33.131Z,95746.81
2022-09-13T22:49:01.479Z,95738.16
2022-09-13T22:51:29.518Z,95732.06
2022-09-13T22:53:57.918Z,95727.69
2022-09-13T22:56:27.180Z,95726.88
2022-09-13T22:58:57.854Z,95728.69
2022-09-13T23:01:27.029Z,95735.19
2022-09-13T23:03:55.186Z,95733.06
2022-09-13T23:06:25.363Z,95738.59
2022-09-13T23:08:54.755Z,95736.66
2022-09-13T23:11:24.427Z,95738.13
2022-09-13T23:13:56.553Z,95734.31
2022-09-13T23:16:27.378Z,95740.16
2022-09-13T23:18:56.283Z,95724.34
2022-09-13T23:21:28.237Z,95736.28
2022-09-13T23:23:56.393Z,95735.75
2022-09-13T23:26:26.763Z,95739.41
2022-09-13T23:28:56.699Z,95733.94
2022-09-13T23:31:27.975Z,95732.75
2022-09-13T23:33:58.911Z,95741.06
2022-09-13T23:36:29.245Z,95736.47
2022-09-13T23:38:59.172Z,95734.69
2022-09-13T23:41:27.942Z,95726.88
2022-09-13T23:43:55.621Z,95726.38
2022-09-13T23:46:24.933Z,95723.47
2022-09-13T23:48:52.688Z,95731.59
2022-09-13T23:51:23.201Z,95723.78
2022-09-13T23:53:51.992Z,95723.44
2022-09-13T23:56:20.465Z,95723.28
2022-09-13T23:58:48.159Z,95720.44
